createdAt,value
2023-05-14T00:01:48.961Z,12.30
2023-05-14T00:04:18.251Z,12.30
2023-05-14T00:06:46.806Z,12.30
2023-05-14T00:09:16.740Z,12.30
2023-05-14T00:11:45.272Z,12.20
2023-05-14T00:14:13.721Z,12.10
2023-05-14T00:16:42.147Z,12.10
2023-05-14T00:19:11.457Z,12.00
2023-05-14T00:21:40.134Z,12.10
2023-05-14T00:24:08.657Z,12.00
2023-05-14T00:26:38.323Z,12.00
2023-05-14T00:29:06.712Z,12.00
2023-05-14T00:31:35.527Z,12.10
2023-05-14T00:34:03.912Z,12.00
2023-05-14T00:36:32.664Z,12.10
2023-05-14T00:39:01.196Z,12.20
2023-05-14T00:41:29.614Z,12.20
2023-05-14T00:43:59.366Z,12.10
2023-05-14T00:46:28.279Z,12.00
2023-05-14T00:48:57.209Z,11.90
2023-05-14T00:51:25.986Z,12.00
2023-05-14T00:53:55.094Z,11.90
2023-05-14T00:56:23.879Z,11.90
2023-05-14T00:58:52.326Z,12.00
2023-05-14T01:01:22.228Z,11.90
2023-05-14T01:03:53.483Z,12.00
2023-05-14T01:06:30.386Z,12.10
2023-05-14T01:09:07.135Z,12.10
2023-05-14T01:11:41.135Z,12.10
2023-05-14T01:14:20.099Z,12.10
2023-05-14T01:16:51.790Z,12.00
2023-05-14T01:19:27.602Z,12.00
2023-05-14T01:21:57.357Z,12.00
2023-05-14T01:24:25.885Z,11.90
2023-05-14T01:26:55.402Z,11.90
2023-05-14T01:29:24.411Z,12.00
2023-05-14T01:31:54.609Z,12.00
2023-05-14T01:34:25.435Z,12.00
2023-05-14T01:36:57.324Z,12.00
2023-05-14T01:39:27.037Z,12.00
2023-05-14T01:41:56.648Z,12.10
2023-05-14T01:44:25.597Z,12.10
2023-05-14T01:46:54.636Z,12.00
2023-05-14T01:49:23.356Z,12.10
2023-05-14T01:51:51.847Z,12.10
2023-05-14T01:54:21.705Z,12.10
2023-05-14T01:56:50.185Z,12.10
2023-05-14T01:59:18.750Z,12.10
2023-05-14T02:01:47.239Z,12.00
2023-05-14T02:04:16.012Z,12.10
2023-05-14T02:06:44.574Z,12.10
2023-05-14T02:09:13.243Z,12.00
2023-05-14T02:11:42.893Z,11.90
2023-05-14T02:14:11.530Z,11.90
2023-05-14T02:16:40.017Z,12.00
2023-05-14T02:19:08.577Z,12.00
2023-05-14T02:21:37.084Z,11.90
2023-05-14T02:24:05.789Z,11.90
2023-05-14T02:26:34.185Z,12.00
2023-05-14T02:29:03.843Z,12.00
2023-05-14T02:31:32.617Z,12.00
2023-05-14T02:34:02.159Z,12.00
2023-05-14T02:36:30.767Z,12.00
2023-05-14T02:39:00.984Z,12.10
2023-05-14T02:41:29.466Z,12.20
2023-05-14T02:43:57.859Z,12.20
2023-05-14T02:46:27.757Z,12.10
2023-05-14T02:48:56.213Z,12.10
2023-05-14T02:51:24.717Z,12.10
2023-05-14T02:53:53.051Z,12.00
2023-05-14T02:56:22.344Z,12.00
2023-05-14T02:58:50.832Z,12.00
2023-05-14T03:01:19.562Z,11.90
2023-05-14T03:03:49.839Z,11.90
2023-05-14T03:06:18.581Z,12.00
2023-05-14T03:08:46.954Z,11.90
2023-05-14T03:11:15.485Z,11.90
2023-05-14T03:13:43.907Z,11.90
2023-05-14T03:16:12.539Z,11.90
2023-05-14T03:18:41.053Z,11.80
2023-05-14T03:21:10.924Z,11.80
2023-05-14T03:23:39.421Z,11.70
2023-05-14T03:26:08.377Z,11.80
2023-05-14T03:28:36.853Z,11.80
2023-05-14T03:31:05.416Z,11.90
2023-05-14T03:33:33.850Z,11.90
2023-05-14T03:36:02.260Z,12.00
2023-05-14T03:38:31.932Z,12.00
2023-05-14T03:41:00.340Z,11.90
2023-05-14T03:43:28.733Z,11.90
2023-05-14T03:45:57.194Z,11.90
2023-05-14T03:48:25.772Z,11.80
2023-05-14T03:50:54.612Z,11.90
2023-05-14T03:53:30.273Z,11.90
2023-05-14T03:55:59.828Z,11.80
2023-05-14T03:58:28.390Z,11.90
2023-05-14T04:00:56.810Z,11.90
2023-05-14T04:03:25.317Z,11.90
2023-05-14T04:05:53.913Z,11.90
2023-05-14T04:08:22.315Z,12.00
2023-05-14T04:10:51.560Z,11.90
2023-05-14T04:13:21.221Z,11.80
2023-05-14T04:15:49.612Z,11.90
2023-05-14T04:18:18.363Z,11.90
2023-05-14T04:20:47.114Z,12.00
2023-05-14T04:23:15.546Z,11.90
2023-05-14T04:25:47.118Z,11.80
2023-05-14T04:28:15.646Z,11.80
2023-05-14T04:30:45.819Z,11.80
2023-05-14T04:33:14.279Z,11.80
2023-05-14T04:35:42.794Z,11.90
2023-05-14T04:38:11.411Z,11.90
2023-05-14T04:40:39.876Z,11.90
2023-05-14T04:43:08.661Z,11.90
2023-05-14T04:45:37.178Z,11.80
2023-05-14T04:48:07.986Z,11.70
2023-05-14T04:50:36.711Z,11.70
2023-05-14T04:53:05.013Z,11.60
2023-05-14T04:55:33.459Z,11.60
2023-05-14T04:58:02.177Z,11.60
2023-05-14T05:00:30.741Z,11.70
2023-05-14T05:03:01.940Z,11.70
2023-05-14T05:05:31.748Z,11.70
2023-05-14T05:08:00.257Z,11.80
2023-05-14T05:10:28.886Z,11.80
2023-05-14T05:12:57.350Z,11.80
2023-05-14T05:15:26.585Z,11.80
2023-05-14T05:17:55.338Z,11.80
2023-05-14T05:20:25.125Z,11.80
2023-05-14T05:22:54.928Z,11.70
2023-05-14T05:25:23.411Z,11.70
2023-05-14T05:27:51.838Z,11.70
2023-05-14T05:30:20.218Z,11.60
2023-05-14T05:32:48.600Z,11.70
2023-05-14T05:35:17.054Z,11.80
2023-05-14T05:37:46.344Z,11.70
2023-05-14T05:40:16.081Z,11.70
2023-05-14T05:42:44.537Z,11.80
2023-05-14T05:45:13.038Z,11.80
2023-05-14T05:47:41.495Z,11.80
2023-05-14T05:50:11.282Z,11.80
2023-05-14T05:52:39.978Z,11.80
2023-05-14T05:55:08.766Z,11.80
2023-05-14T05:57:38.434Z,11.80
2023-05-14T06:00:13.379Z,11.80
2023-05-14T06:02:42.090Z,11.80
2023-05-14T06:05:11.739Z,11.70
2023-05-14T06:07:40.401Z,11.70
2023-05-14T06:10:09.639Z,11.70
2023-05-14T06:12:39.428Z,11.70
2023-05-14T06:15:08.986Z,11.70
2023-05-14T06:17:37.400Z,11.80
2023-05-14T06:20:07.974Z,11.90
2023-05-14T06:22:36.451Z,11.90
2023-05-14T06:25:05.143Z,11.90
2023-05-14T06:27:33.613Z,12.00
2023-05-14T06:30:03.754Z,12.00
2023-05-14T06:32:32.251Z,12.00
2023-05-14T06:35:00.573Z,12.00
2023-05-14T06:37:29.086Z,12.00
2023-05-14T06:39:58.061Z,11.90
2023-05-14T06:42:27.373Z,11.90
2023-05-14T06:44:56.101Z,11.90
2023-05-14T06:47:26.091Z,11.90
2023-05-14T06:49:55.819Z,11.90
2023-05-14T06:52:24.355Z,12.00
2023-05-14T06:54:52.739Z,12.00
2023-05-14T06:57:21.155Z,12.10
2023-05-14T06:59:49.694Z,12.00
2023-05-14T07:02:18.081Z,11.90
2023-05-14T07:04:47.939Z,11.90
2023-05-14T07:07:20.599Z,12.00
2023-05-14T07:09:49.217Z,12.10
2023-05-14T07:12:17.586Z,12.20
2023-05-14T07:14:46.674Z,12.00
2023-05-14T07:17:15.245Z,12.10
2023-05-14T07:19:43.738Z,12.00
2023-05-14T07:22:13.473Z,12.10
2023-05-14T07:24:41.948Z,12.20
2023-05-14T07:27:10.327Z,12.20
2023-05-14T07:29:38.656Z,12.30
2023-05-14T07:32:07.146Z,12.30
2023-05-14T07:34:35.561Z,12.50
2023-05-14T07:37:04.282Z,12.30
2023-05-14T07:39:33.907Z,12.30
2023-05-14T07:42:02.669Z,12.20
2023-05-14T07:44:31.186Z,12.20
2023-05-14T07:46:59.739Z,12.10
2023-05-14T07:49:28.389Z,12.20
2023-05-14T07:51:56.825Z,12.30
2023-05-14T07:54:25.309Z,12.30
2023-05-14T07:56:55.146Z,12.60
2023-05-14T07:59:23.805Z,12.60
2023-05-14T08:01:52.267Z,12.50
2023-05-14T08:04:20.988Z,12.30
2023-05-14T08:06:49.517Z,12.50
2023-05-14T08:09:18.109Z,12.60
2023-05-14T08:11:46.650Z,12.30
2023-05-14T08:14:16.506Z,12.40
2023-05-14T08:16:44.952Z,12.60
2023-05-14T08:19:14.435Z,12.60
2023-05-14T08:21:43.034Z,12.70
2023-05-14T08:24:11.415Z,12.80
2023-05-14T08:26:40.029Z,12.80
2023-05-14T08:29:10.496Z,12.70
2023-05-14T08:31:41.673Z,12.70
2023-05-14T08:34:10.168Z,12.70
2023-05-14T08:36:38.578Z,12.80
2023-05-14T08:39:08.245Z,12.70
2023-05-14T08:41:37.535Z,12.70
2023-05-14T08:44:10.339Z,12.50
2023-05-14T08:46:41.016Z,12.60
2023-05-14T08:49:22.716Z,12.60
2023-05-14T08:51:51.220Z,12.60
2023-05-14T08:54:22.522Z,12.70
2023-05-14T08:56:53.292Z,12.80
2023-05-14T08:59:21.827Z,13.00
2023-05-14T09:01:54.968Z,13.20
2023-05-14T09:04:24.848Z,13.00
2023-05-14T09:06:54.549Z,12.90
2023-05-14T09:09:23.787Z,13.10
2023-05-14T09:11:53.891Z,13.00
2023-05-14T09:14:23.991Z,12.70
2023-05-14T09:16:54.788Z,12.70
2023-05-14T09:19:23.694Z,12.90
2023-05-14T09:21:52.118Z,13.00
2023-05-14T09:24:22.125Z,13.20
2023-05-14T09:26:52.700Z,13.20
2023-05-14T09:29:21.289Z,13.30
2023-05-14T09:31:53.563Z,13.40
2023-05-14T09:34:26.295Z,13.20
2023-05-14T09:36:57.876Z,13.30
2023-05-14T09:39:26.974Z,13.50
2023-05-14T09:41:55.945Z,13.70
2023-05-14T09:44:25.010Z,13.70
2023-05-14T09:46:55.500Z,13.80
2023-05-14T09:49:24.533Z,13.90
2023-05-14T09:51:53.318Z,14.10
2023-05-14T09:54:21.837Z,14.50
2023-05-14T09:56:50.243Z,14.50
2023-05-14T09:59:18.835Z,14.40
2023-05-14T10:01:47.506Z,14.30
2023-05-14T10:04:17.221Z,14.50
2023-05-14T10:06:51.810Z,14.80
2023-05-14T10:09:26.250Z,14.80
2023-05-14T10:11:57.323Z,14.70
2023-05-14T10:14:30.594Z,14.70
2023-05-14T10:17:02.238Z,14.50
2023-05-14T10:19:34.462Z,14.40
2023-05-14T10:22:08.681Z,14.50
2023-05-14T10:24:38.888Z,14.40
2023-05-14T10:27:07.684Z,14.70
2023-05-14T10:29:37.921Z,15.00
2023-05-14T10:32:08.080Z,16.00
2023-05-14T10:34:41.171Z,16.00
2023-05-14T10:37:11.451Z,14.80
2023-05-14T10:39:47.568Z,15.30
2023-05-14T10:42:18.771Z,15.00
2023-05-14T10:44:53.520Z,15.20
2023-05-14T10:47:22.443Z,16.10
2023-05-14T10:49:55.333Z,16.00
2023-05-14T10:52:23.771Z,16.00
2023-05-14T10:54:53.134Z,15.70
2023-05-14T10:57:22.308Z,15.90
2023-05-14T10:59:53.352Z,16.00
2023-05-14T11:02:24.309Z,16.70
2023-05-14T11:05:00.010Z,17.10
2023-05-14T11:07:33.664Z,16.00
2023-05-14T11:10:05.228Z,16.00
2023-05-14T11:12:33.993Z,15.50
2023-05-14T11:15:03.949Z,16.10
2023-05-14T11:17:32.690Z,16.00
2023-05-14T11:20:02.348Z,16.30
2023-05-14T11:22:30.741Z,16.30
2023-05-14T11:24:59.168Z,15.70
2023-05-14T11:27:27.833Z,15.40
2023-05-14T11:29:58.039Z,16.10
2023-05-14T11:32:26.959Z,17.10
2023-05-14T11:34:56.099Z,17.20
2023-05-14T11:37:25.748Z,16.60
2023-05-14T11:39:56.599Z,17.00
2023-05-14T11:42:25.829Z,16.90
2023-05-14T11:44:55.149Z,16.90
2023-05-14T11:47:23.997Z,17.40
2023-05-14T11:49:52.835Z,17.70
2023-05-14T11:52:22.039Z,17.80
2023-05-14T11:54:51.759Z,17.70
2023-05-14T11:57:21.555Z,17.00
2023-05-14T11:59:50.751Z,16.20
2023-05-14T12:02:20.725Z,16.50
2023-05-14T12:04:52.691Z,16.90
2023-05-14T12:07:21.478Z,17.30
2023-05-14T12:09:51.929Z,17.00
2023-05-14T12:12:21.864Z,17.40
2023-05-14T12:14:52.627Z,18.30
2023-05-14T12:17:22.429Z,17.70
2023-05-14T12:19:52.140Z,17.30
2023-05-14T12:22:22.167Z,17.70
2023-05-14T12:24:56.330Z,17.90
2023-05-14T12:27:26.377Z,17.80
2023-05-14T12:30:12.862Z,17.80
2023-05-14T12:32:48.940Z,17.60
2023-05-14T12:35:17.647Z,17.80
2023-05-14T12:37:46.151Z,17.30
2023-05-14T12:40:15.969Z,17.80
2023-05-14T12:42:44.328Z,18.50
2023-05-14T12:45:13.224Z,18.50
2023-05-14T12:47:41.918Z,18.50
2023-05-14T12:50:10.733Z,18.50
2023-05-14T12:52:39.898Z,18.40
2023-05-14T12:55:09.832Z,18.50
2023-05-14T12:57:40.162Z,18.30
2023-05-14T13:00:12.993Z,18.30
2023-05-14T13:02:43.822Z,18.40
2023-05-14T13:05:13.084Z,17.20
2023-05-14T13:07:41.651Z,17.20
2023-05-14T13:10:11.564Z,17.70
2023-05-14T13:12:41.520Z,17.80
2023-05-14T13:15:10.944Z,17.70
2023-05-14T13:17:40.345Z,17.40
2023-05-14T13:20:09.817Z,17.00
2023-05-14T13:22:38.183Z,16.70
2023-05-14T13:25:07.227Z,17.20
2023-05-14T13:27:36.257Z,17.00
2023-05-14T13:30:06.530Z,16.90
2023-05-14T13:32:34.957Z,17.00
2023-05-14T13:35:03.514Z,16.70
2023-05-14T13:37:32.004Z,17.20
2023-05-14T13:40:00.572Z,16.00
2023-05-14T13:42:29.031Z,15.30
2023-05-14T13:44:57.682Z,15.80
2023-05-14T13:47:28.186Z,15.50
2023-05-14T13:49:57.098Z,15.50
2023-05-14T13:52:25.622Z,15.20
2023-05-14T13:54:54.195Z,15.70
2023-05-14T13:57:23.000Z,15.80
2023-05-14T13:59:51.437Z,15.40
2023-05-14T14:02:19.878Z,16.20
2023-05-14T14:04:50.034Z,16.70
2023-05-14T14:07:18.543Z,17.00
2023-05-14T14:09:47.022Z,16.70
2023-05-14T14:12:15.577Z,15.90
2023-05-14T14:14:45.300Z,16.10
2023-05-14T14:17:13.773Z,16.20
2023-05-14T14:19:42.213Z,16.30
2023-05-14T14:22:12.649Z,16.20
2023-05-14T14:24:41.078Z,16.20
2023-05-14T14:27:09.652Z,15.90
2023-05-14T14:29:38.323Z,16.20
2023-05-14T14:32:07.519Z,16.10
2023-05-14T14:34:36.236Z,15.20
2023-05-14T14:37:04.678Z,15.50
2023-05-14T14:39:34.303Z,15.70
2023-05-14T14:42:02.762Z,15.90
2023-05-14T14:44:31.138Z,15.60
2023-05-14T14:46:59.591Z,16.10
2023-05-14T14:49:28.680Z,16.20
2023-05-14T14:51:57.372Z,16.40
2023-05-14T14:54:25.690Z,15.90
2023-05-14T14:56:55.581Z,15.60
2023-05-14T14:59:24.076Z,15.50
2023-05-14T15:01:52.515Z,15.90
2023-05-14T15:04:20.927Z,15.70
2023-05-14T15:06:49.561Z,16.50
2023-05-14T15:09:18.580Z,16.40
2023-05-14T15:11:47.241Z,16.10
2023-05-14T15:14:16.762Z,16.50
2023-05-14T15:16:45.212Z,16.40
2023-05-14T15:19:13.806Z,16.80
2023-05-14T15:21:42.283Z,16.30
2023-05-14T15:24:13.932Z,16.70
2023-05-14T15:26:42.661Z,16.30
2023-05-14T15:29:11.223Z,17.00
2023-05-14T15:31:41.424Z,16.90
2023-05-14T15:34:10.061Z,16.70
2023-05-14T15:36:38.509Z,16.30
2023-05-14T15:39:10.358Z,16.20
2023-05-14T15:41:38.889Z,16.10
2023-05-14T15:44:07.476Z,15.90
2023-05-14T15:46:38.014Z,16.00
2023-05-14T15:49:07.708Z,16.40
2023-05-14T15:51:36.666Z,16.60
2023-05-14T15:54:05.148Z,16.20
2023-05-14T15:56:33.619Z,16.10
2023-05-14T15:59:02.061Z,16.20
2023-05-14T16:01:30.518Z,15.90
2023-05-14T16:03:59.003Z,15.60
2023-05-14T16:06:29.114Z,15.70
2023-05-14T16:08:57.534Z,16.30
2023-05-14T16:11:25.907Z,15.80
2023-05-14T16:13:54.342Z,16.40
2023-05-14T16:16:23.297Z,16.30
2023-05-14T16:18:52.049Z,16.60
2023-05-14T16:21:20.533Z,15.90
2023-05-14T16:23:50.300Z,16.00
2023-05-14T16:26:18.719Z,16.20
2023-05-14T16:28:47.136Z,15.90
2023-05-14T16:31:16.901Z,15.80
2023-05-14T16:33:45.286Z,15.80
2023-05-14T16:36:13.749Z,15.90
2023-05-14T16:38:56.881Z,15.60
2023-05-14T16:41:31.994Z,15.80
2023-05-14T16:44:00.480Z,15.80
2023-05-14T16:46:31.156Z,16.30
2023-05-14T16:48:59.633Z,16.60
2023-05-14T16:51:28.162Z,15.90
2023-05-14T16:53:56.534Z,15.80
2023-05-14T16:56:24.944Z,16.10
2023-05-14T16:58:54.552Z,15.90
2023-05-14T17:01:23.004Z,16.10
2023-05-14T17:03:51.398Z,16.10
2023-05-14T17:06:19.883Z,15.80
2023-05-14T17:08:48.415Z,15.70
2023-05-14T17:11:17.145Z,16.10
2023-05-14T17:13:45.668Z,15.70
2023-05-14T17:16:15.540Z,15.50
2023-05-14T17:18:45.798Z,15.40
2023-05-14T17:21:14.280Z,15.40
2023-05-14T17:23:43.510Z,15.60
2023-05-14T17:26:12.217Z,15.50
2023-05-14T17:28:40.648Z,15.50
2023-05-14T17:31:09.086Z,15.80
2023-05-14T17:33:38.769Z,15.70
2023-05-14T17:36:07.781Z,15.20
2023-05-14T17:38:36.442Z,15.40
2023-05-14T17:41:04.885Z,15.50
2023-05-14T17:43:33.308Z,15.70
2023-05-14T17:46:01.778Z,15.80
2023-05-14T17:48:30.441Z,15.90
2023-05-14T17:51:00.454Z,15.80
2023-05-14T17:53:28.880Z,15.70
2023-05-14T17:55:57.396Z,15.30
2023-05-14T17:58:26.043Z,15.20
2023-05-14T18:00:54.418Z,15.10
2023-05-14T18:03:22.963Z,15.00
2023-05-14T18:05:52.053Z,14.90
2023-05-14T18:08:21.870Z,14.80
2023-05-14T18:10:50.306Z,14.80
2023-05-14T18:13:18.715Z,14.80
2023-05-14T18:15:47.115Z,15.00
2023-05-14T18:18:17.161Z,14.90
2023-05-14T18:20:45.553Z,14.90
2023-05-14T18:23:14.125Z,14.70
2023-05-14T18:25:44.050Z,14.70
2023-05-14T18:28:12.959Z,14.60
2023-05-14T18:30:41.987Z,14.60
2023-05-14T18:33:10.539Z,14.50
2023-05-14T18:35:39.061Z,14.50
2023-05-14T18:38:08.063Z,14.60
2023-05-14T18:40:36.631Z,14.70
2023-05-14T18:43:06.241Z,14.70
2023-05-14T18:45:34.802Z,14.50
2023-05-14T18:48:03.516Z,14.50
2023-05-14T18:50:32.063Z,14.60
2023-05-14T18:53:00.427Z,14.60
2023-05-14T18:55:29.012Z,14.60
2023-05-14T18:57:57.863Z,14.60
2023-05-14T19:00:27.457Z,14.50
2023-05-14T19:02:55.978Z,14.50
2023-05-14T19:05:24.590Z,14.50
2023-05-14T19:07:53.321Z,14.50
2023-05-14T19:10:21.811Z,14.40
2023-05-14T19:12:50.106Z,14.50
2023-05-14T19:15:18.652Z,14.30
2023-05-14T19:17:49.218Z,14.30
2023-05-14T19:20:17.793Z,14.20
2023-05-14T19:22:46.224Z,14.20
2023-05-14T19:25:14.623Z,14.10
2023-05-14T19:27:43.048Z,14.10
2023-05-14T19:30:12.000Z,14.10
2023-05-14T19:32:40.462Z,14.10
2023-05-14T19:35:11.497Z,14.00
2023-05-14T19:37:40.024Z,14.00
2023-05-14T19:40:09.350Z,14.00
2023-05-14T19:42:37.632Z,14.00
2023-05-14T19:45:06.633Z,13.90
2023-05-14T19:47:35.143Z,13.90
2023-05-14T19:50:04.075Z,13.90
2023-05-14T19:52:33.741Z,13.80
2023-05-14T19:55:02.248Z,13.80
2023-05-14T19:57:31.242Z,13.60
2023-05-14T19:59:59.707Z,13.50
2023-05-14T20:02:29.302Z,13.50
2023-05-14T20:04:58.039Z,13.40
2023-05-14T20:07:26.905Z,13.40
2023-05-14T20:09:56.667Z,13.30
2023-05-14T20:12:25.223Z,13.30
2023-05-14T20:14:53.591Z,13.30
2023-05-14T20:17:22.046Z,13.20
2023-05-14T20:19:50.591Z,13.20
2023-05-14T20:22:18.912Z,13.20
2023-05-14T20:24:47.416Z,13.20
2023-05-14T20:27:17.157Z,13.20
2023-05-14T20:29:46.821Z,13.10
2023-05-14T20:32:15.728Z,13.10
2023-05-14T20:34:44.074Z,13.10
2023-05-14T20:37:13.146Z,13.10
2023-05-14T20:39:41.761Z,13.10
2023-05-14T20:42:10.281Z,13.00
2023-05-14T20:44:40.004Z,13.00
2023-05-14T20:47:08.697Z,13.00
2023-05-14T20:49:37.242Z,13.00
2023-05-14T20:52:05.853Z,12.90
2023-05-14T20:54:34.274Z,12.90
2023-05-14T20:57:02.687Z,12.90
2023-05-14T20:59:31.131Z,12.80
2023-05-14T21:02:01.035Z,12.80
2023-05-14T21:04:29.762Z,12.80
2023-05-14T21:06:58.403Z,12.70
2023-05-14T21:09:27.441Z,12.70
2023-05-14T21:11:55.916Z,12.70
2023-05-14T21:14:24.433Z,12.60
2023-05-14T21:16:52.895Z,12.70
2023-05-14T21:19:23.263Z,12.70
2023-05-14T21:21:51.742Z,12.60
2023-05-14T21:24:20.213Z,12.70
2023-05-14T21:26:48.973Z,12.60
2023-05-14T21:29:17.497Z,12.60
2023-05-14T21:31:46.074Z,12.50
2023-05-14T21:34:14.484Z,12.50
2023-05-14T21:36:44.248Z,12.40
2023-05-14T21:39:12.711Z,12.40
2023-05-14T21:41:41.415Z,12.30
2023-05-14T21:44:09.826Z,12.30
2023-05-14T21:46:38.274Z,12.30
2023-05-14T21:49:07.050Z,12.20
2023-05-14T21:51:35.994Z,12.30
2023-05-14T21:54:06.033Z,12.20
2023-05-14T21:56:35.822Z,12.20
2023-05-14T21:59:04.835Z,12.10
2023-05-14T22:01:35.642Z,12.10
2023-05-14T22:04:10.852Z,12.10
2023-05-14T22:06:39.464Z,12.10
2023-05-14T22:09:11.178Z,12.00
2023-05-14T22:11:39.630Z,11.90
2023-05-14T22:14:08.017Z,11.90
2023-05-14T22:16:36.422Z,11.90
2023-05-14T22:19:06.656Z,11.90
2023-05-14T22:21:35.345Z,11.90
2023-05-14T22:24:03.817Z,11.80
2023-05-14T22:26:33.568Z,11.80
2023-05-14T22:29:02.063Z,11.80
2023-05-14T22:31:31.282Z,11.80
2023-05-14T22:33:59.724Z,11.80
2023-05-14T22:36:28.113Z,11.80
2023-05-14T22:38:56.540Z,11.80
2023-05-14T22:41:25.107Z,11.80
2023-05-14T22:43:54.731Z,11.80
2023-05-14T22:46:23.080Z,11.80
2023-05-14T22:48:51.698Z,11.90
2023-05-14T22:51:20.090Z,11.90
2023-05-14T22:53:48.622Z,12.00
2023-05-14T22:56:17.368Z,12.00
2023-05-14T22:58:45.755Z,12.00
2023-05-14T23:01:15.587Z,12.00
2023-05-14T23:03:44.139Z,12.10
2023-05-14T23:06:14.579Z,12.10
2023-05-14T23:08:42.998Z,12.20
2023-05-14T23:11:11.863Z,12.10
2023-05-14T23:13:40.915Z,12.10
2023-05-14T23:16:09.371Z,12.10
2023-05-14T23:18:39.285Z,12.20
2023-05-14T23:21:07.928Z,12.30
2023-05-14T23:23:36.604Z,12.30
2023-05-14T23:26:05.430Z,12.30
2023-05-14T23:28:33.887Z,12.30
2023-05-14T23:31:02.490Z,12.40
2023-05-14T23:33:31.006Z,12.40
2023-05-14T23:36:00.756Z,12.40
2023-05-14T23:38:29.257Z,12.40
2023-05-14T23:40:57.713Z,12.30
2023-05-14T23:43:26.358Z,12.30
2023-05-14T23:45:54.892Z,12.30
2023-05-14T23:48:23.485Z,12.30
2023-05-14T23:50:52.257Z,12.30
2023-05-14T23:53:21.800Z,12.30
2023-05-14T23:55:50.451Z,12.40
2023-05-14T23:58:18.974Z,12.40
